sim
Sign-in with your pilot id or email,
or register
Callsign
Passwort

Schedule Details

Flight Number: OEO8573
Departure: Bristol Airport (EGGD) at 07:30
Arrival: Munich Airport (EDDM) at 09:30

Weather Information
Getting current METAR information for EGGD 192150Z AUTO 05017KT 9999 NCD 14/11 Q1018
Getting current METAR information for EDDM 192150Z VRB01KT CAVOK 10/09 Q1018 NOSIG

Schedule Frequency

Route Map